Hlavní strana
METAR-TAF:

METAR-TAF

Letiště :

Hof, Německo

zeměpisná šířka: 50-19N, zeměpisná délka: 011-53E, výška: 567 m

Aktuální stav počasí

Zpráva byla vytvořena před 24 minutami, v 16:50 UTC
Východoseverovýchodní vítr 6 kt, proměnlivý mezi severoseverovýchodním a východním
Teplota 2°C
Vlhkost vzduchu 64%
Tlak 1030 hPa
Viditelnost 10 km a více
Žádná oblačnost pod 1500 m, nevyskytují se cumulonimby.

METAR: EDQM 171650Z 06006KT 030V100 CAVOK 02/M04 Q1030

Čas: 18:14 (17:14 UTC)

Předpověď počasí

Zpráva byla vytvořena před 3 hodinami a 14 minutami, v 14:00 UTC
Předpověď platná od 17 v 15 UTC do 17 v 24 UTC
Severovýchodní vítr 8 kt
Viditelnost 10 km a více
Žádná oblačnost pod 1500 m, nevyskytují se cumulonimby.

TAF: EDQM 171400Z 1715/1724 05008KT CAVOK

Stav a předpovědi počasí z více než 4 000 letišť (zprávy METAR a TAF).

Červené a žluté tečky na mapě představují dostupné meteorologické stanice.

Když kurzor umístíte na tečku, zobrazí se název stanice.

Pak kliknutím zobrazíte stav a předpověď počasí.

Chcete-li změnit mapu, kliknutím na zelené tlačítko se znaménkem +mapu přiblížíte, kliknutím na zelené tlačítko se znaménkem – mapu oddálíte a kliknutím na zelené šipky přejdete na sousední mapy.


METAR-TAF: